sensor_id;sensor_type;location;lat;lon;timestamp;P1;durP1;ratioP1;P2;durP2;ratioP2
16393;SDS011;8306;51.128;4.476;2022-10-16T00:00:38;1.53;;;0.87;;
16393;SDS011;8306;51.128;4.476;2022-10-16T00:03:04;1.80;;;0.80;;
16393;SDS011;8306;51.128;4.476;2022-10-16T00:05:30;3.80;;;0.90;;
16393;SDS011;8306;51.128;4.476;2022-10-16T00:07:56;0.80;;;0.73;;
16393;SDS011;8306;51.128;4.476;2022-10-16T00:10:23;2.80;;;0.73;;
16393;SDS011;8306;51.128;4.476;2022-10-16T00:12:49;0.90;;;0.80;;
16393;SDS011;8306;51.128;4.476;2022-10-16T00:15:16;1.53;;;1.03;;
16393;SDS011;8306;51.128;4.476;2022-10-16T00:17:42;0.93;;;0.87;;
16393;SDS011;8306;51.128;4.476;2022-10-16T00:20:09;0.97;;;0.80;;
16393;SDS011;8306;51.128;4.476;2022-10-16T00:22:35;1.47;;;1.07;;
16393;SDS011;8306;51.128;4.476;2022-10-16T00:25:02;1.90;;;0.97;;
16393;SDS011;8306;51.128;4.476;2022-10-16T00:27:28;0.90;;;0.90;;
16393;SDS011;8306;51.128;4.476;2022-10-16T00:29:55;0.80;;;0.80;;
16393;SDS011;8306;51.128;4.476;2022-10-16T00:32:21;0.80;;;0.80;;
16393;SDS011;8306;51.128;4.476;2022-10-16T00:34:48;1.47;;;0.80;;
16393;SDS011;8306;51.128;4.476;2022-10-16T00:37:14;0.60;;;0.60;;
16393;SDS011;8306;51.128;4.476;2022-10-16T00:39:41;0.70;;;0.70;;
16393;SDS011;8306;51.128;4.476;2022-10-16T00:42:09;1.00;;;0.60;;
16393;SDS011;8306;51.128;4.476;2022-10-16T00:47:09;1.27;;;0.70;;
16393;SDS011;8306;51.128;4.476;2022-10-16T00:49:35;0.60;;;0.60;;
16393;SDS011;8306;51.128;4.476;2022-10-16T00:52:02;0.50;;;0.50;;
16393;SDS011;8306;51.128;4.476;2022-10-16T00:54:29;0.80;;;0.67;;
16393;SDS011;8306;51.128;4.476;2022-10-16T00:56:56;0.93;;;0.77;;
16393;SDS011;8306;51.128;4.476;2022-10-16T00:59:25;1.90;;;0.50;;
16393;SDS011;8306;51.128;4.476;2022-10-16T01:01:51;0.63;;;0.63;;
16393;SDS011;8306;51.128;4.476;2022-10-16T01:04:17;0.70;;;0.70;;
16393;SDS011;8306;51.128;4.476;2022-10-16T01:09:16;0.77;;;0.67;;
16393;SDS011;8306;51.128;4.476;2022-10-16T01:14:45;1.97;;;0.70;;
16393;SDS011;8306;51.128;4.476;2022-10-16T01:17:12;1.07;;;1.00;;
16393;SDS011;8306;51.128;4.476;2022-10-16T01:22:26;2.13;;;1.00;;
16393;SDS011;8306;51.128;4.476;2022-10-16T01:24:52;1.00;;;0.90;;
16393;SDS011;8306;51.128;4.476;2022-10-16T01:27:21;1.43;;;0.67;;
16393;SDS011;8306;51.128;4.476;2022-10-16T01:29:49;0.80;;;0.80;;
16393;SDS011;8306;51.128;4.476;2022-10-16T01:32:23;0.70;;;0.67;;
16393;SDS011;8306;51.128;4.476;2022-10-16T01:34:58;0.70;;;0.70;;
16393;SDS011;8306;51.128;4.476;2022-10-16T01:37:40;0.67;;;0.60;;
16393;SDS011;8306;51.128;4.476;2022-10-16T01:40:05;1.63;;;0.73;;
16393;SDS011;8306;51.128;4.476;2022-10-16T01:42:31;1.03;;;0.80;;
16393;SDS011;8306;51.128;4.476;2022-10-16T01:45:01;1.00;;;0.83;;
16393;SDS011;8306;51.128;4.476;2022-10-16T01:47:28;1.70;;;0.90;;
16393;SDS011;8306;51.128;4.476;2022-10-16T01:49:54;2.23;;;1.17;;
16393;SDS011;8306;51.128;4.476;2022-10-16T01:52:22;1.17;;;0.77;;
16393;SDS011;8306;51.128;4.476;2022-10-16T01:54:47;0.90;;;0.90;;
16393;SDS011;8306;51.128;4.476;2022-10-16T01:57:14;1.00;;;1.00;;
16393;SDS011;8306;51.128;4.476;2022-10-16T01:59:42;2.50;;;1.10;;
16393;SDS011;8306;51.128;4.476;2022-10-16T02:02:09;1.37;;;1.07;;
16393;SDS011;8306;51.128;4.476;2022-10-16T02:04:39;1.00;;;1.00;;
16393;SDS011;8306;51.128;4.476;2022-10-16T02:07:02;2.23;;;0.90;;
16393;SDS011;8306;51.128;4.476;2022-10-16T02:09:29;1.03;;;0.90;;
16393;SDS011;8306;51.128;4.476;2022-10-16T02:11:55;0.90;;;0.90;;
16393;SDS011;8306;51.128;4.476;2022-10-16T02:14:22;1.30;;;1.10;;
16393;SDS011;8306;51.128;4.476;2022-10-16T02:16:48;1.47;;;1.00;;
16393;SDS011;8306;51.128;4.476;2022-10-16T02:19:15;1.00;;;1.00;;
16393;SDS011;8306;51.128;4.476;2022-10-16T02:24:17;1.40;;;1.30;;
16393;SDS011;8306;51.128;4.476;2022-10-16T02:26:44;1.83;;;1.00;;
16393;SDS011;8306;51.128;4.476;2022-10-16T02:29:12;0.90;;;0.90;;
16393;SDS011;8306;51.128;4.476;2022-10-16T02:31:35;1.73;;;1.00;;
16393;SDS011;8306;51.128;4.476;2022-10-16T02:34:02;0.90;;;0.90;;
16393;SDS011;8306;51.128;4.476;2022-10-16T02:36:28;1.67;;;1.10;;
16393;SDS011;8306;51.128;4.476;2022-10-16T02:38:55;1.63;;;1.00;;
16393;SDS011;8306;51.128;4.476;2022-10-16T02:41:21;1.77;;;1.10;;
16393;SDS011;8306;51.128;4.476;2022-10-16T02:43:48;1.80;;;1.10;;
16393;SDS011;8306;51.128;4.476;2022-10-16T02:46:14;1.20;;;1.10;;
16393;SDS011;8306;51.128;4.476;2022-10-16T02:48:41;1.30;;;1.20;;
16393;SDS011;8306;51.128;4.476;2022-10-16T02:51:07;1.20;;;1.10;;
16393;SDS011;8306;51.128;4.476;2022-10-16T02:53:34;1.27;;;1.17;;
16393;SDS011;8306;51.128;4.476;2022-10-16T02:56:00;1.40;;;1.30;;
16393;SDS011;8306;51.128;4.476;2022-10-16T02:58:26;1.63;;;1.13;;
16393;SDS011;8306;51.128;4.476;2022-10-16T03:00:54;2.30;;;1.20;;
16393;SDS011;8306;51.128;4.476;2022-10-16T03:03:19;1.50;;;1.20;;
16393;SDS011;8306;51.128;4.476;2022-10-16T03:05:46;1.20;;;1.10;;
16393;SDS011;8306;51.128;4.476;2022-10-16T03:08:13;1.10;;;1.10;;
16393;SDS011;8306;51.128;4.476;2022-10-16T03:10:39;3.23;;;1.30;;
16393;SDS011;8306;51.128;4.476;2022-10-16T03:13:05;3.57;;;1.40;;
16393;SDS011;8306;51.128;4.476;2022-10-16T03:15:32;1.03;;;1.00;;
16393;SDS011;8306;51.128;4.476;2022-10-16T03:17:58;1.27;;;1.17;;
16393;SDS011;8306;51.128;4.476;2022-10-16T03:20:25;1.87;;;1.30;;
16393;SDS011;8306;51.128;4.476;2022-10-16T03:22:51;1.63;;;1.30;;
16393;SDS011;8306;51.128;4.476;2022-10-16T03:25:18;1.80;;;1.40;;
16393;SDS011;8306;51.128;4.476;2022-10-16T03:27:44;1.63;;;1.40;;
16393;SDS011;8306;51.128;4.476;2022-10-16T03:30:11;1.90;;;1.20;;
16393;SDS011;8306;51.128;4.476;2022-10-16T03:32:37;1.40;;;1.30;;
16393;SDS011;8306;51.128;4.476;2022-10-16T03:35:04;1.37;;;1.27;;
16393;SDS011;8306;51.128;4.476;2022-10-16T03:37:30;2.50;;;1.27;;
16393;SDS011;8306;51.128;4.476;2022-10-16T03:39:57;2.43;;;1.40;;
16393;SDS011;8306;51.128;4.476;2022-10-16T03:42:23;1.33;;;1.23;;
16393;SDS011;8306;51.128;4.476;2022-10-16T03:44:50;2.50;;;1.40;;
16393;SDS011;8306;51.128;4.476;2022-10-16T03:47:16;2.70;;;1.40;;
16393;SDS011;8306;51.128;4.476;2022-10-16T03:49:43;1.30;;;1.17;;
16393;SDS011;8306;51.128;4.476;2022-10-16T03:52:09;1.77;;;1.30;;
16393;SDS011;8306;51.128;4.476;2022-10-16T03:54:36;1.67;;;1.40;;
16393;SDS011;8306;51.128;4.476;2022-10-16T03:57:02;2.70;;;1.20;;
16393;SDS011;8306;51.128;4.476;2022-10-16T03:59:29;1.50;;;1.40;;
16393;SDS011;8306;51.128;4.476;2022-10-16T04:01:55;2.27;;;1.20;;
16393;SDS011;8306;51.128;4.476;2022-10-16T04:04:21;2.80;;;1.23;;
16393;SDS011;8306;51.128;4.476;2022-10-16T04:06:48;1.27;;;1.17;;
16393;SDS011;8306;51.128;4.476;2022-10-16T04:09:14;2.47;;;1.27;;
16393;SDS011;8306;51.128;4.476;2022-10-16T04:11:41;2.33;;;1.20;;
16393;SDS011;8306;51.128;4.476;2022-10-16T04:14:07;1.43;;;1.33;;
16393;SDS011;8306;51.128;4.476;2022-10-16T04:16:34;1.47;;;1.30;;
16393;SDS011;8306;51.128;4.476;2022-10-16T04:19:00;4.33;;;1.40;;
16393;SDS011;8306;51.128;4.476;2022-10-16T04:21:27;1.37;;;1.10;;
16393;SDS011;8306;51.128;4.476;2022-10-16T04:23:53;2.10;;;1.20;;
16393;SDS011;8306;51.128;4.476;2022-10-16T04:26:20;1.50;;;1.40;;
16393;SDS011;8306;51.128;4.476;2022-10-16T04:28:46;1.43;;;1.33;;
16393;SDS011;8306;51.128;4.476;2022-10-16T04:31:13;1.37;;;1.27;;
16393;SDS011;8306;51.128;4.476;2022-10-16T04:33:41;1.73;;;1.40;;
16393;SDS011;8306;51.128;4.476;2022-10-16T04:36:06;2.07;;;1.40;;
16393;SDS011;8306;51.128;4.476;2022-10-16T04:38:33;1.63;;;1.40;;
16393;SDS011;8306;51.128;4.476;2022-10-16T04:40:59;1.70;;;1.33;;
16393;SDS011;8306;51.128;4.476;2022-10-16T04:43:25;1.67;;;1.57;;
16393;SDS011;8306;51.128;4.476;2022-10-16T04:45:52;1.47;;;1.33;;
16393;SDS011;8306;51.128;4.476;2022-10-16T04:48:18;2.20;;;1.70;;
16393;SDS011;8306;51.128;4.476;2022-10-16T04:50:45;1.90;;;1.60;;
16393;SDS011;8306;51.128;4.476;2022-10-16T04:53:11;1.60;;;1.20;;
16393;SDS011;8306;51.128;4.476;2022-10-16T04:55:38;3.30;;;1.70;;
16393;SDS011;8306;51.128;4.476;2022-10-16T04:58:04;2.30;;;1.53;;
16393;SDS011;8306;51.128;4.476;2022-10-16T05:00:31;1.77;;;1.40;;
16393;SDS011;8306;51.128;4.476;2022-10-16T05:02:57;2.10;;;1.50;;
16393;SDS011;8306;51.128;4.476;2022-10-16T05:05:23;3.10;;;1.50;;
16393;SDS011;8306;51.128;4.476;2022-10-16T05:07:50;2.20;;;1.63;;
16393;SDS011;8306;51.128;4.476;2022-10-16T05:10:16;1.30;;;1.20;;
16393;SDS011;8306;51.128;4.476;2022-10-16T05:12:43;1.83;;;1.50;;
16393;SDS011;8306;51.128;4.476;2022-10-16T05:15:09;5.13;;;1.70;;
16393;SDS011;8306;51.128;4.476;2022-10-16T05:17:36;2.43;;;1.87;;
16393;SDS011;8306;51.128;4.476;2022-10-16T05:20:02;1.80;;;1.67;;
16393;SDS011;8306;51.128;4.476;2022-10-16T05:22:29;2.43;;;1.63;;
16393;SDS011;8306;51.128;4.476;2022-10-16T05:24:55;2.67;;;2.00;;
16393;SDS011;8306;51.128;4.476;2022-10-16T05:27:22;2.37;;;1.60;;
16393;SDS011;8306;51.128;4.476;2022-10-16T05:29:48;1.60;;;1.50;;
16393;SDS011;8306;51.128;4.476;2022-10-16T05:32:15;1.97;;;1.70;;
16393;SDS011;8306;51.128;4.476;2022-10-16T05:34:41;2.47;;;1.47;;
16393;SDS011;8306;51.128;4.476;2022-10-16T05:37:08;2.33;;;1.40;;
16393;SDS011;8306;51.128;4.476;2022-10-16T05:39:34;2.00;;;1.80;;
16393;SDS011;8306;51.128;4.476;2022-10-16T05:42:01;1.90;;;1.80;;
16393;SDS011;8306;51.128;4.476;2022-10-16T05:44:27;3.57;;;1.80;;
16393;SDS011;8306;51.128;4.476;2022-10-16T05:46:54;3.47;;;1.80;;
16393;SDS011;8306;51.128;4.476;2022-10-16T05:49:20;1.80;;;1.60;;
16393;SDS011;8306;51.128;4.476;2022-10-16T05:51:47;2.13;;;1.50;;
16393;SDS011;8306;51.128;4.476;2022-10-16T05:54:13;2.20;;;1.57;;
16393;SDS011;8306;51.128;4.476;2022-10-16T05:56:40;1.63;;;1.40;;
16393;SDS011;8306;51.128;4.476;2022-10-16T05:59:06;1.97;;;1.40;;
16393;SDS011;8306;51.128;4.476;2022-10-16T06:01:33;2.20;;;1.50;;
16393;SDS011;8306;51.128;4.476;2022-10-16T06:03:59;2.30;;;1.30;;
16393;SDS011;8306;51.128;4.476;2022-10-16T06:06:26;1.97;;;1.50;;
16393;SDS011;8306;51.128;4.476;2022-10-16T06:08:53;2.80;;;1.50;;
16393;SDS011;8306;51.128;4.476;2022-10-16T06:11:19;2.43;;;1.50;;
16393;SDS011;8306;51.128;4.476;2022-10-16T06:13:48;2.00;;;1.80;;
16393;SDS011;8306;51.128;4.476;2022-10-16T06:16:12;1.87;;;1.70;;
16393;SDS011;8306;51.128;4.476;2022-10-16T06:18:38;3.07;;;1.70;;
16393;SDS011;8306;51.128;4.476;2022-10-16T06:21:08;1.80;;;1.70;;
16393;SDS011;8306;51.128;4.476;2022-10-16T06:23:34;1.60;;;1.50;;
16393;SDS011;8306;51.128;4.476;2022-10-16T06:26:07;2.40;;;1.80;;
16393;SDS011;8306;51.128;4.476;2022-10-16T06:28:33;3.67;;;1.93;;
16393;SDS011;8306;51.128;4.476;2022-10-16T06:31:00;2.33;;;1.80;;
16393;SDS011;8306;51.128;4.476;2022-10-16T06:33:26;3.17;;;1.60;;
16393;SDS011;8306;51.128;4.476;2022-10-16T06:35:52;2.97;;;2.00;;
16393;SDS011;8306;51.128;4.476;2022-10-16T06:38:19;2.33;;;1.60;;
16393;SDS011;8306;51.128;4.476;2022-10-16T06:40:46;2.97;;;1.83;;
16393;SDS011;8306;51.128;4.476;2022-10-16T06:43:12;2.93;;;2.03;;
16393;SDS011;8306;51.128;4.476;2022-10-16T06:45:39;2.07;;;1.70;;
16393;SDS011;8306;51.128;4.476;2022-10-16T06:48:05;3.77;;;1.70;;
16393;SDS011;8306;51.128;4.476;2022-10-16T06:50:32;2.10;;;1.87;;
16393;SDS011;8306;51.128;4.476;2022-10-16T06:52:58;1.90;;;1.67;;
16393;SDS011;8306;51.128;4.476;2022-10-16T06:55:25;1.50;;;1.40;;
16393;SDS011;8306;51.128;4.476;2022-10-16T06:57:51;5.03;;;1.57;;
16393;SDS011;8306;51.128;4.476;2022-10-16T07:00:18;3.37;;;1.77;;
16393;SDS011;8306;51.128;4.476;2022-10-16T07:02:44;2.60;;;1.50;;
16393;SDS011;8306;51.128;4.476;2022-10-16T07:05:11;1.90;;;1.37;;
16393;SDS011;8306;51.128;4.476;2022-10-16T07:07:37;1.40;;;1.30;;
16393;SDS011;8306;51.128;4.476;2022-10-16T07:10:04;2.13;;;1.47;;
16393;SDS011;8306;51.128;4.476;2022-10-16T07:12:30;2.47;;;1.40;;
16393;SDS011;8306;51.128;4.476;2022-10-16T07:14:57;1.10;;;1.00;;
16393;SDS011;8306;51.128;4.476;2022-10-16T07:17:23;1.33;;;1.10;;
16393;SDS011;8306;51.128;4.476;2022-10-16T07:19:50;1.53;;;1.13;;
16393;SDS011;8306;51.128;4.476;2022-10-16T07:22:16;1.63;;;1.50;;
16393;SDS011;8306;51.128;4.476;2022-10-16T07:24:43;1.50;;;1.27;;
16393;SDS011;8306;51.128;4.476;2022-10-16T07:27:09;2.10;;;1.30;;
16393;SDS011;8306;51.128;4.476;2022-10-16T07:29:35;1.73;;;1.00;;
16393;SDS011;8306;51.128;4.476;2022-10-16T07:32:02;2.17;;;1.47;;
16393;SDS011;8306;51.128;4.476;2022-10-16T07:34:28;1.20;;;1.10;;
16393;SDS011;8306;51.128;4.476;2022-10-16T07:36:55;1.30;;;1.20;;
16393;SDS011;8306;51.128;4.476;2022-10-16T07:39:21;1.20;;;0.90;;
16393;SDS011;8306;51.128;4.476;2022-10-16T07:41:48;1.57;;;1.47;;
16393;SDS011;8306;51.128;4.476;2022-10-16T07:44:15;1.17;;;1.07;;
16393;SDS011;8306;51.128;4.476;2022-10-16T07:46:41;1.20;;;1.10;;
16393;SDS011;8306;51.128;4.476;2022-10-16T07:49:08;2.53;;;1.13;;
16393;SDS011;8306;51.128;4.476;2022-10-16T07:51:34;1.23;;;1.13;;
16393;SDS011;8306;51.128;4.476;2022-10-16T07:54:00;1.77;;;1.33;;
16393;SDS011;8306;51.128;4.476;2022-10-16T07:56:27;2.57;;;1.10;;
16393;SDS011;8306;51.128;4.476;2022-10-16T07:58:53;1.63;;;1.10;;
16393;SDS011;8306;51.128;4.476;2022-10-16T08:01:20;2.00;;;1.20;;
16393;SDS011;8306;51.128;4.476;2022-10-16T08:03:47;2.80;;;1.20;;
16393;SDS011;8306;51.128;4.476;2022-10-16T08:06:13;1.80;;;1.20;;
16393;SDS011;8306;51.128;4.476;2022-10-16T08:08:39;3.03;;;1.10;;
16393;SDS011;8306;51.128;4.476;2022-10-16T08:11:06;1.07;;;1.03;;
16393;SDS011;8306;51.128;4.476;2022-10-16T08:13:32;1.53;;;1.00;;
16393;SDS011;8306;51.128;4.476;2022-10-16T08:15:59;1.10;;;1.00;;
16393;SDS011;8306;51.128;4.476;2022-10-16T08:18:25;3.57;;;1.33;;
16393;SDS011;8306;51.128;4.476;2022-10-16T08:20:58;2.13;;;1.37;;
16393;SDS011;8306;51.128;4.476;2022-10-16T08:23:24;2.80;;;1.40;;
16393;SDS011;8306;51.128;4.476;2022-10-16T08:25:51;1.37;;;0.80;;
16393;SDS011;8306;51.128;4.476;2022-10-16T08:28:17;2.10;;;1.17;;
16393;SDS011;8306;51.128;4.476;2022-10-16T08:30:43;1.60;;;1.07;;
16393;SDS011;8306;51.128;4.476;2022-10-16T08:33:10;2.97;;;1.60;;
16393;SDS011;8306;51.128;4.476;2022-10-16T08:35:36;3.37;;;1.20;;
16393;SDS011;8306;51.128;4.476;2022-10-16T08:38:06;1.97;;;1.10;;
16393;SDS011;8306;51.128;4.476;2022-10-16T08:40:33;1.53;;;1.03;;
16393;SDS011;8306;51.128;4.476;2022-10-16T08:46:05;1.97;;;0.83;;
16393;SDS011;8306;51.128;4.476;2022-10-16T08:48:32;1.50;;;1.03;;
16393;SDS011;8306;51.128;4.476;2022-10-16T08:51:08;2.00;;;0.90;;
16393;SDS011;8306;51.128;4.476;2022-10-16T08:53:40;1.57;;;0.83;;
16393;SDS011;8306;51.128;4.476;2022-10-16T08:56:07;3.40;;;0.97;;
16393;SDS011;8306;51.128;4.476;2022-10-16T08:58:33;1.53;;;0.90;;
16393;SDS011;8306;51.128;4.476;2022-10-16T09:01:00;1.57;;;1.00;;
16393;SDS011;8306;51.128;4.476;2022-10-16T09:03:46;2.47;;;1.10;;
16393;SDS011;8306;51.128;4.476;2022-10-16T09:06:46;1.90;;;0.80;;
16393;SDS011;8306;51.128;4.476;2022-10-16T09:12:05;2.40;;;1.20;;
16393;SDS011;8306;51.128;4.476;2022-10-16T09:17:00;1.83;;;1.07;;
16393;SDS011;8306;51.128;4.476;2022-10-16T09:19:31;2.00;;;1.00;;
16393;SDS011;8306;51.128;4.476;2022-10-16T09:21:59;1.30;;;1.00;;
16393;SDS011;8306;51.128;4.476;2022-10-16T09:24:25;2.00;;;1.00;;
16393;SDS011;8306;51.128;4.476;2022-10-16T09:26:51;1.63;;;1.07;;
16393;SDS011;8306;51.128;4.476;2022-10-16T09:29:18;1.40;;;1.10;;
16393;SDS011;8306;51.128;4.476;2022-10-16T09:31:44;1.57;;;0.90;;
16393;SDS011;8306;51.128;4.476;2022-10-16T09:36:51;2.30;;;1.25;;
16393;SDS011;8306;51.128;4.476;2022-10-16T09:39:18;1.80;;;1.30;;
16393;SDS011;8306;51.128;4.476;2022-10-16T09:41:44;2.35;;;1.20;;
16393;SDS011;8306;51.128;4.476;2022-10-16T09:44:16;2.00;;;1.10;;
16393;SDS011;8306;51.128;4.476;2022-10-16T09:47:05;1.85;;;1.25;;
16393;SDS011;8306;51.128;4.476;2022-10-16T09:49:30;1.05;;;0.93;;
16393;SDS011;8306;51.128;4.476;2022-10-16T09:52:31;1.92;;;1.10;;
16393;SDS011;8306;51.128;4.476;2022-10-16T09:54:29;2.62;;;1.33;;
16393;SDS011;8306;51.128;4.476;2022-10-16T09:57:05;1.42;;;0.95;;
16393;SDS011;8306;51.128;4.476;2022-10-16T09:59:34;2.58;;;1.12;;
16393;SDS011;8306;51.128;4.476;2022-10-16T10:02:01;2.80;;;1.35;;
16393;SDS011;8306;51.128;4.476;2022-10-16T10:04:36;1.40;;;1.15;;
16393;SDS011;8306;51.128;4.476;2022-10-16T10:06:54;2.62;;;1.10;;
16393;SDS011;8306;51.128;4.476;2022-10-16T10:09:26;2.20;;;1.20;;
16393;SDS011;8306;51.128;4.476;2022-10-16T10:11:58;2.20;;;1.33;;
16393;SDS011;8306;51.128;4.476;2022-10-16T10:14:31;2.72;;;1.30;;
16393;SDS011;8306;51.128;4.476;2022-10-16T10:17:08;2.60;;;1.35;;
16393;SDS011;8306;51.128;4.476;2022-10-16T10:22:30;2.37;;;1.40;;
16393;SDS011;8306;51.128;4.476;2022-10-16T10:25:07;2.33;;;1.17;;
16393;SDS011;8306;51.128;4.476;2022-10-16T10:27:36;2.33;;;1.42;;
16393;SDS011;8306;51.128;4.476;2022-10-16T10:30:01;2.62;;;1.00;;
16393;SDS011;8306;51.128;4.476;2022-10-16T10:32:31;2.10;;;1.48;;
16393;SDS011;8306;51.128;4.476;2022-10-16T10:35:07;1.95;;;1.27;;
16393;SDS011;8306;51.128;4.476;2022-10-16T10:37:45;2.50;;;1.30;;
16393;SDS011;8306;51.128;4.476;2022-10-16T10:40:16;2.83;;;1.20;;
16393;SDS011;8306;51.128;4.476;2022-10-16T10:42:57;2.50;;;1.50;;
16393;SDS011;8306;51.128;4.476;2022-10-16T10:45:26;2.40;;;1.00;;
16393;SDS011;8306;51.128;4.476;2022-10-16T10:50:41;3.12;;;1.33;;
16393;SDS011;8306;51.128;4.476;2022-10-16T11:06:25;2.50;;;1.20;;
16393;SDS011;8306;51.128;4.476;2022-10-16T11:08:51;3.17;;;1.40;;
16393;SDS011;8306;51.128;4.476;2022-10-16T11:11:18;2.97;;;1.58;;
16393;SDS011;8306;51.128;4.476;2022-10-16T11:13:48;3.00;;;1.17;;
16393;SDS011;8306;51.128;4.476;2022-10-16T11:16:26;3.42;;;1.15;;
16393;SDS011;8306;51.128;4.476;2022-10-16T11:18:52;2.42;;;1.40;;
16393;SDS011;8306;51.128;4.476;2022-10-16T11:21:16;4.00;;;1.73;;
16393;SDS011;8306;51.128;4.476;2022-10-16T11:23:44;2.67;;;1.30;;
16393;SDS011;8306;51.128;4.476;2022-10-16T11:26:13;2.87;;;1.30;;
16393;SDS011;8306;51.128;4.476;2022-10-16T11:28:37;1.70;;;1.10;;
16393;SDS011;8306;51.128;4.476;2022-10-16T11:31:10;3.83;;;1.30;;
16393;SDS011;8306;51.128;4.476;2022-10-16T11:36:14;3.25;;;1.40;;
16393;SDS011;8306;51.128;4.476;2022-10-16T11:39:02;2.20;;;1.10;;
16393;SDS011;8306;51.128;4.476;2022-10-16T11:43:58;2.43;;;1.10;;
16393;SDS011;8306;51.128;4.476;2022-10-16T11:46:22;3.70;;;1.40;;
16393;SDS011;8306;51.128;4.476;2022-10-16T11:48:54;2.87;;;1.20;;
16393;SDS011;8306;51.128;4.476;2022-10-16T11:51:21;4.62;;;1.27;;
16393;SDS011;8306;51.128;4.476;2022-10-16T11:54:00;2.97;;;1.30;;
16393;SDS011;8306;51.128;4.476;2022-10-16T11:56:36;2.33;;;1.10;;
16393;SDS011;8306;51.128;4.476;2022-10-16T11:59:02;1.37;;;0.73;;
16393;SDS011;8306;51.128;4.476;2022-10-16T12:01:36;3.13;;;1.30;;
16393;SDS011;8306;51.128;4.476;2022-10-16T12:06:51;2.67;;;1.10;;
16393;SDS011;8306;51.128;4.476;2022-10-16T12:09:20;2.70;;;0.93;;
16393;SDS011;8306;51.128;4.476;2022-10-16T12:11:45;1.37;;;0.90;;
16393;SDS011;8306;51.128;4.476;2022-10-16T12:16:38;1.47;;;1.03;;
16393;SDS011;8306;51.128;4.476;2022-10-16T12:19:23;1.53;;;0.80;;
16393;SDS011;8306;51.128;4.476;2022-10-16T12:21:49;2.03;;;1.10;;
16393;SDS011;8306;51.128;4.476;2022-10-16T12:24:26;2.17;;;1.13;;
16393;SDS011;8306;51.128;4.476;2022-10-16T12:26:48;3.40;;;1.13;;
16393;SDS011;8306;51.128;4.476;2022-10-16T12:29:21;2.07;;;1.00;;
16393;SDS011;8306;51.128;4.476;2022-10-16T12:31:45;1.10;;;0.90;;
16393;SDS011;8306;51.128;4.476;2022-10-16T12:34:44;1.83;;;0.63;;
16393;SDS011;8306;51.128;4.476;2022-10-16T12:37:20;2.20;;;1.07;;
16393;SDS011;8306;51.128;4.476;2022-10-16T12:39:51;2.30;;;1.00;;
16393;SDS011;8306;51.128;4.476;2022-10-16T12:42:38;1.30;;;0.97;;
16393;SDS011;8306;51.128;4.476;2022-10-16T12:44:52;2.93;;;1.10;;
16393;SDS011;8306;51.128;4.476;2022-10-16T12:47:20;2.13;;;0.90;;
16393;SDS011;8306;51.128;4.476;2022-10-16T12:49:49;2.03;;;0.93;;
16393;SDS011;8306;51.128;4.476;2022-10-16T12:52:25;1.10;;;0.70;;
16393;SDS011;8306;51.128;4.476;2022-10-16T12:54:50;1.70;;;0.90;;
16393;SDS011;8306;51.128;4.476;2022-10-16T13:00:03;1.70;;;0.87;;
16393;SDS011;8306;51.128;4.476;2022-10-16T13:08:11;1.57;;;0.83;;
16393;SDS011;8306;51.128;4.476;2022-10-16T13:10:53;1.73;;;0.90;;
16393;SDS011;8306;51.128;4.476;2022-10-16T13:18:59;1.73;;;0.80;;
16393;SDS011;8306;51.128;4.476;2022-10-16T13:29:59;1.83;;;0.90;;
16393;SDS011;8306;51.128;4.476;2022-10-16T13:32:21;2.93;;;0.80;;
16393;SDS011;8306;51.128;4.476;2022-10-16T13:34:48;2.57;;;0.77;;
16393;SDS011;8306;51.128;4.476;2022-10-16T13:37:17;2.10;;;0.70;;
16393;SDS011;8306;51.128;4.476;2022-10-16T13:39:43;1.43;;;0.50;;
16393;SDS011;8306;51.128;4.476;2022-10-16T13:42:27;2.13;;;0.80;;
16393;SDS011;8306;51.128;4.476;2022-10-16T13:44:54;1.17;;;0.70;;
16393;SDS011;8306;51.128;4.476;2022-10-16T13:47:21;3.80;;;1.40;;
16393;SDS011;8306;51.128;4.476;2022-10-16T13:49:47;3.20;;;1.67;;
16393;SDS011;8306;51.128;4.476;2022-10-16T13:52:19;2.03;;;1.30;;
16393;SDS011;8306;51.128;4.476;2022-10-16T13:54:46;1.57;;;1.03;;
16393;SDS011;8306;51.128;4.476;2022-10-16T13:57:15;1.50;;;1.00;;
16393;SDS011;8306;51.128;4.476;2022-10-16T13:59:41;1.67;;;0.90;;
16393;SDS011;8306;51.128;4.476;2022-10-16T14:04:46;1.70;;;0.80;;
16393;SDS011;8306;51.128;4.476;2022-10-16T14:07:20;1.60;;;0.70;;
16393;SDS011;8306;51.128;4.476;2022-10-16T14:09:48;2.33;;;1.10;;
16393;SDS011;8306;51.128;4.476;2022-10-16T14:12:14;1.27;;;0.90;;
16393;SDS011;8306;51.128;4.476;2022-10-16T14:14:41;1.70;;;0.83;;
16393;SDS011;8306;51.128;4.476;2022-10-16T14:17:13;2.70;;;0.80;;
16393;SDS011;8306;51.128;4.476;2022-10-16T14:19:33;1.70;;;1.10;;
16393;SDS011;8306;51.128;4.476;2022-10-16T14:22:00;1.13;;;0.60;;
16393;SDS011;8306;51.128;4.476;2022-10-16T14:24:30;1.23;;;0.70;;
16393;SDS011;8306;51.128;4.476;2022-10-16T14:26:55;1.83;;;0.60;;
16393;SDS011;8306;51.128;4.476;2022-10-16T14:29:22;0.93;;;0.50;;
16393;SDS011;8306;51.128;4.476;2022-10-16T14:31:55;1.00;;;0.70;;
16393;SDS011;8306;51.128;4.476;2022-10-16T14:34:28;1.80;;;0.60;;
16393;SDS011;8306;51.128;4.476;2022-10-16T14:36:54;1.23;;;0.60;;
16393;SDS011;8306;51.128;4.476;2022-10-16T14:39:22;3.03;;;0.70;;
16393;SDS011;8306;51.128;4.476;2022-10-16T14:41:49;1.50;;;0.60;;
16393;SDS011;8306;51.128;4.476;2022-10-16T14:44:17;1.03;;;0.70;;
16393;SDS011;8306;51.128;4.476;2022-10-16T14:46:42;0.93;;;0.63;;
16393;SDS011;8306;51.128;4.476;2022-10-16T14:51:35;0.50;;;0.40;;
16393;SDS011;8306;51.128;4.476;2022-10-16T14:54:01;1.67;;;0.70;;
16393;SDS011;8306;51.128;4.476;2022-10-16T14:56:32;1.53;;;0.90;;
16393;SDS011;8306;51.128;4.476;2022-10-16T14:58:57;1.03;;;0.60;;
16393;SDS011;8306;51.128;4.476;2022-10-16T15:01:23;1.20;;;0.77;;
16393;SDS011;8306;51.128;4.476;2022-10-16T15:03:50;2.13;;;0.87;;
16393;SDS011;8306;51.128;4.476;2022-10-16T15:06:16;1.67;;;0.70;;
16393;SDS011;8306;51.128;4.476;2022-10-16T15:08:43;2.90;;;0.80;;
16393;SDS011;8306;51.128;4.476;2022-10-16T15:11:14;1.43;;;0.77;;
16393;SDS011;8306;51.128;4.476;2022-10-16T15:13:39;2.70;;;0.83;;
16393;SDS011;8306;51.128;4.476;2022-10-16T15:16:07;1.60;;;0.93;;
16393;SDS011;8306;51.128;4.476;2022-10-16T15:18:32;2.30;;;1.13;;
16393;SDS011;8306;51.128;4.476;2022-10-16T15:20:58;1.03;;;0.70;;
16393;SDS011;8306;51.128;4.476;2022-10-16T15:23:25;1.70;;;1.00;;
16393;SDS011;8306;51.128;4.476;2022-10-16T15:25:52;2.40;;;1.33;;
16393;SDS011;8306;51.128;4.476;2022-10-16T15:28:18;1.87;;;1.00;;
16393;SDS011;8306;51.128;4.476;2022-10-16T15:30:44;2.43;;;1.10;;
16393;SDS011;8306;51.128;4.476;2022-10-16T15:33:11;1.40;;;0.90;;
16393;SDS011;8306;51.128;4.476;2022-10-16T15:35:37;1.00;;;0.90;;
16393;SDS011;8306;51.128;4.476;2022-10-16T15:38:03;1.70;;;1.20;;
16393;SDS011;8306;51.128;4.476;2022-10-16T15:40:30;2.27;;;1.40;;
16393;SDS011;8306;51.128;4.476;2022-10-16T15:42:56;1.83;;;1.30;;
16393;SDS011;8306;51.128;4.476;2022-10-16T15:45:23;3.77;;;1.33;;
16393;SDS011;8306;51.128;4.476;2022-10-16T15:47:49;3.50;;;1.17;;
16393;SDS011;8306;51.128;4.476;2022-10-16T15:50:16;1.87;;;1.10;;
16393;SDS011;8306;51.128;4.476;2022-10-16T15:52:42;1.43;;;1.30;;
16393;SDS011;8306;51.128;4.476;2022-10-16T15:55:09;2.93;;;1.10;;
16393;SDS011;8306;51.128;4.476;2022-10-16T15:57:35;2.40;;;1.10;;
16393;SDS011;8306;51.128;4.476;2022-10-16T16:00:02;1.57;;;1.07;;
16393;SDS011;8306;51.128;4.476;2022-10-16T16:02:28;1.97;;;1.00;;
16393;SDS011;8306;51.128;4.476;2022-10-16T16:04:55;5.73;;;1.20;;
16393;SDS011;8306;51.128;4.476;2022-10-16T16:07:21;2.30;;;1.07;;
16393;SDS011;8306;51.128;4.476;2022-10-16T16:09:48;1.83;;;1.03;;
16393;SDS011;8306;51.128;4.476;2022-10-16T16:12:14;2.53;;;1.00;;
16393;SDS011;8306;51.128;4.476;2022-10-16T16:14:41;1.20;;;1.10;;
16393;SDS011;8306;51.128;4.476;2022-10-16T16:17:07;1.60;;;1.50;;
16393;SDS011;8306;51.128;4.476;2022-10-16T16:19:34;1.57;;;1.30;;
16393;SDS011;8306;51.128;4.476;2022-10-16T16:22:00;2.90;;;1.80;;
16393;SDS011;8306;51.128;4.476;2022-10-16T16:24:26;15.43;;;9.63;;